METAR és
SPECI
METAR LHBP 020800Z 33007KT 9999 -RA FEW032 BKN065 14/13 Q1016 NOSIG=
METAR LHBP 020730Z 32006KT CAVOK 14/12 Q1017 NOSIG=
METAR LHBP 020700Z 31006KT 8000 -RA FEW028 BKN063 13/12 Q1017 NOSIG=
METAR LHBP 020630Z VRB03KT 8000 -RA FEW007 BKN028 OVC067 13/12 Q1017 NOSIG=
METAR LHBP 020600Z 33006KT 7000 -RA FEW007 SCT021 OVC060 13/12 Q1016 NOSIG=
METAR LHBP 020530Z VRB01KT 9999 -RA FEW007 SCT026 OVC064 13/12 Q1016 NOSIG=
METAR LHBP 020500Z 35005KT 9999 -RA FEW009 SCT019 OVC064 13/12 Q1016 NOSIG=
METAR LHBP 020430Z 34005KT 8000 -RA FEW009 SCT040 BKN066 13/12 Q1016 NOSIG=
METAR LHBP 020400Z VRB01KT 7000 -RA FEW005 SCT025 BKN073 12/12 Q1016 NOSIG=
METAR LHBP 020330Z 32005KT 7000 SCT037 BKN069 12/11 Q1016 NOSIG=
METAR LHBP 020300Z 31006KT 280V030 9999 -SHRA SCT037 BKN069 12/12 Q1015 NOSIG=
METAR LHBP 020230Z 32004KT 290V350 9999 -SHRA SCT035 BKN068 13/12 Q1016 NOSIG=
METAR LHBP 020200Z VRB03KT 9999 FEW035 BKN068 13/12 Q1016 NOSIG=
METAR LHBP 020130Z 33006KT 8000 SCT036 BKN056 13/12 Q1016 NOSIG=
METAR LHBP 020100Z 34006KT 8000 FEW029 SCT058 BKN100 13/12 Q1016 NOSIG=
TAF
TAF LHBP 020500Z 0206/0306 34006KT 9999 SCT040 BKN100 TEMPO 0206/0215 -RA -SHRA FEW010 SCT020 BKN040 BECMG 0208/0210 06007KT BECMG 0212/0214 12010KT TEMPO 0216/0221 CAVOK BECMG 0218/0220 33007KT TEMPO 0300/0306 -SHRA -RA SCT020 BKN060=
GAMET
FAHU41 LHBM 020500
LHCC GAMET VALID 020600/021200 LHBP-
BUDAPEST FIR BLW FL100
SECN 1
SIG CLD: BKN/OVC 500-1000/XXX FT AGL W OF E01730
ICE: MOD 7500/10000 FT AMSL W OF E01810
TURB: MOS SFC/4500 FT AMSL W OF E01800
SIGMETS APPLICABLE: NIL=
OMSZ: 2016. május 2. 06:42 (04:42  UTC)
[FAHU41]
AIRMET
Nincs érvényes távirat! 
WAHU41 LHBM 231545
LHCC AIRMET 02 VALID 231600/231800 LHBP-
LHCC BUDAPEST FIR ISOL TS OBS AT 1545Z W OF E02000
TOP ABV FL100 MOV NE NC=
OMSZ: 2016. április 23. 17:48 (15:48  UTC)
[WAHU41]
SIGMET
Nincs érvényes távirat! 
WSHU31 LHBM 012100
LHCC SIGMET 06 VALID 012100/020100 LHBP-
LHCC BUDAPEST FIR SEV ICE FCST WI N4747 E01702 -
N4727 E01910 - N4636 E01836 - N4700 E01631 - N4737 E01631 -
N4747 E01702 9000FT/FL135 MOV NW WKN=
OMSZ: 2016. május 1. 23:00 (21:00  UTC)
[WSHU31]
SIGMET
Vulkáni hamufelhő
Nincs érvényes távirat! 
WVHU31 LHBM 271515 CCA
LHCC SIGMET 03 VALID 271515/271800 LHBP-
LHCC BUDAPEST FIR EXERCISE VOLCEX12/01
CNL VA SIGMET 02 271200/271800
EXERCISE EXERCISE EXERCISE VOLCEX12/01=
OMSZ: 2015. április 14. 15:15 (13:15  UTC)
[WVHU31]